sensor_id;sensor_type;location;lat;lon;timestamp;P1;durP1;ratioP1;P2;durP2;ratioP2
6422;SDS011;3244;42.708;23.288;2023-05-08T00:00:16;5.97;;;5.40;;
6422;SDS011;3244;42.708;23.288;2023-05-08T00:02:43;5.78;;;5.38;;
6422;SDS011;3244;42.708;23.288;2023-05-08T00:05:10;5.43;;;5.03;;
6422;SDS011;3244;42.708;23.288;2023-05-08T00:07:37;7.72;;;5.78;;
6422;SDS011;3244;42.708;23.288;2023-05-08T00:10:04;5.90;;;5.50;;
6422;SDS011;3244;42.708;23.288;2023-05-08T00:12:32;5.85;;;5.40;;
6422;SDS011;3244;42.708;23.288;2023-05-08T00:15:00;6.60;;;5.82;;
6422;SDS011;3244;42.708;23.288;2023-05-08T00:17:27;6.68;;;6.07;;
6422;SDS011;3244;42.708;23.288;2023-05-08T00:19:54;5.55;;;3.97;;
6422;SDS011;3244;42.708;23.288;2023-05-08T00:22:20;7.13;;;4.90;;
6422;SDS011;3244;42.708;23.288;2023-05-08T00:24:47;7.13;;;6.05;;
6422;SDS011;3244;42.708;23.288;2023-05-08T00:27:14;7.05;;;5.85;;
6422;SDS011;3244;42.708;23.288;2023-05-08T00:29:41;7.25;;;6.05;;
6422;SDS011;3244;42.708;23.288;2023-05-08T00:32:09;6.13;;;5.70;;
6422;SDS011;3244;42.708;23.288;2023-05-08T00:34:35;6.03;;;5.30;;
6422;SDS011;3244;42.708;23.288;2023-05-08T00:37:02;5.47;;;4.93;;
6422;SDS011;3244;42.708;23.288;2023-05-08T00:39:29;5.32;;;4.90;;
6422;SDS011;3244;42.708;23.288;2023-05-08T00:41:55;5.03;;;4.15;;
6422;SDS011;3244;42.708;23.288;2023-05-08T00:44:22;5.45;;;5.05;;
6422;SDS011;3244;42.708;23.288;2023-05-08T00:46:49;7.68;;;5.53;;
6422;SDS011;3244;42.708;23.288;2023-05-08T00:49:17;10.30;;;5.35;;
6422;SDS011;3244;42.708;23.288;2023-05-08T00:51:44;7.00;;;5.47;;
6422;SDS011;3244;42.708;23.288;2023-05-08T00:54:13;6.85;;;5.65;;
6422;SDS011;3244;42.708;23.288;2023-05-08T00:56:40;9.40;;;5.22;;
6422;SDS011;3244;42.708;23.288;2023-05-08T00:59:08;7.57;;;5.20;;
6422;SDS011;3244;42.708;23.288;2023-05-08T01:01:38;5.82;;;5.28;;
6422;SDS011;3244;42.708;23.288;2023-05-08T01:04:06;5.25;;;4.85;;
6422;SDS011;3244;42.708;23.288;2023-05-08T01:06:34;10.48;;;5.85;;
6422;SDS011;3244;42.708;23.288;2023-05-08T01:09:02;6.57;;;5.97;;
6422;SDS011;3244;42.708;23.288;2023-05-08T01:11:30;5.57;;;5.15;;
6422;SDS011;3244;42.708;23.288;2023-05-08T01:14:04;6.00;;;5.53;;
6422;SDS011;3244;42.708;23.288;2023-05-08T01:16:38;5.82;;;5.10;;
6422;SDS011;3244;42.708;23.288;2023-05-08T01:19:15;6.30;;;5.63;;
6422;SDS011;3244;42.708;23.288;2023-05-08T01:22:18;10.98;;;5.72;;
6422;SDS011;3244;42.708;23.288;2023-05-08T01:25:03;8.65;;;5.80;;
6422;SDS011;3244;42.708;23.288;2023-05-08T01:28:02;6.70;;;6.10;;
6422;SDS011;3244;42.708;23.288;2023-05-08T01:30:44;7.22;;;5.97;;
6422;SDS011;3244;42.708;23.288;2023-05-08T01:33:23;6.15;;;5.55;;
6422;SDS011;3244;42.708;23.288;2023-05-08T01:35:55;8.77;;;5.43;;
6422;SDS011;3244;42.708;23.288;2023-05-08T01:38:29;6.10;;;5.70;;
6422;SDS011;3244;42.708;23.288;2023-05-08T01:41:00;9.40;;;5.82;;
6422;SDS011;3244;42.708;23.288;2023-05-08T01:43:34;7.30;;;6.60;;
6422;SDS011;3244;42.708;23.288;2023-05-08T01:46:08;6.72;;;6.22;;
6422;SDS011;3244;42.708;23.288;2023-05-08T01:48:42;8.40;;;6.32;;
6422;SDS011;3244;42.708;23.288;2023-05-08T01:51:16;7.82;;;7.13;;
6422;SDS011;3244;42.708;23.288;2023-05-08T01:53:46;8.40;;;5.78;;
6422;SDS011;3244;42.708;23.288;2023-05-08T01:56:17;6.35;;;5.85;;
6422;SDS011;3244;42.708;23.288;2023-05-08T01:58:47;6.78;;;6.18;;
6422;SDS011;3244;42.708;23.288;2023-05-08T02:01:17;8.73;;;5.65;;
6422;SDS011;3244;42.708;23.288;2023-05-08T02:03:49;6.43;;;5.93;;
6422;SDS011;3244;42.708;23.288;2023-05-08T02:06:19;8.32;;;7.07;;
6422;SDS011;3244;42.708;23.288;2023-05-08T02:08:48;8.38;;;6.85;;
6422;SDS011;3244;42.708;23.288;2023-05-08T02:11:16;10.35;;;5.97;;
6422;SDS011;3244;42.708;23.288;2023-05-08T02:13:44;7.20;;;6.53;;
6422;SDS011;3244;42.708;23.288;2023-05-08T02:16:13;8.38;;;7.10;;
6422;SDS011;3244;42.708;23.288;2023-05-08T02:18:42;8.00;;;6.90;;
6422;SDS011;3244;42.708;23.288;2023-05-08T02:21:15;8.63;;;6.13;;
6422;SDS011;3244;42.708;23.288;2023-05-08T02:23:46;6.10;;;5.70;;
6422;SDS011;3244;42.708;23.288;2023-05-08T02:26:14;8.50;;;6.47;;
6422;SDS011;3244;42.708;23.288;2023-05-08T02:28:41;8.05;;;7.20;;
6422;SDS011;3244;42.708;23.288;2023-05-08T02:31:08;7.20;;;6.60;;
6422;SDS011;3244;42.708;23.288;2023-05-08T02:33:37;8.93;;;7.90;;
6422;SDS011;3244;42.708;23.288;2023-05-08T02:36:07;8.38;;;7.57;;
6422;SDS011;3244;42.708;23.288;2023-05-08T02:38:37;7.47;;;6.38;;
6422;SDS011;3244;42.708;23.288;2023-05-08T02:41:06;12.55;;;7.30;;
6422;SDS011;3244;42.708;23.288;2023-05-08T02:43:35;7.82;;;7.15;;
6422;SDS011;3244;42.708;23.288;2023-05-08T02:46:08;6.90;;;6.30;;
6422;SDS011;3244;42.708;23.288;2023-05-08T02:48:38;7.68;;;6.85;;
6422;SDS011;3244;42.708;23.288;2023-05-08T02:51:15;10.00;;;6.60;;
6422;SDS011;3244;42.708;23.288;2023-05-08T02:53:49;6.80;;;6.10;;
6422;SDS011;3244;42.708;23.288;2023-05-08T02:56:24;6.90;;;6.22;;
6422;SDS011;3244;42.708;23.288;2023-05-08T02:58:57;10.85;;;7.75;;
6422;SDS011;3244;42.708;23.288;2023-05-08T03:01:29;11.55;;;7.43;;
6422;SDS011;3244;42.708;23.288;2023-05-08T03:04:03;7.95;;;6.28;;
6422;SDS011;3244;42.708;23.288;2023-05-08T03:06:34;10.10;;;6.45;;
6422;SDS011;3244;42.708;23.288;2023-05-08T03:09:05;6.65;;;6.07;;
6422;SDS011;3244;42.708;23.288;2023-05-08T03:11:37;11.43;;;6.72;;
6422;SDS011;3244;42.708;23.288;2023-05-08T03:14:09;8.98;;;6.10;;
6422;SDS011;3244;42.708;23.288;2023-05-08T03:16:38;7.57;;;6.75;;
6422;SDS011;3244;42.708;23.288;2023-05-08T03:19:10;7.15;;;6.25;;
6422;SDS011;3244;42.708;23.288;2023-05-08T03:21:43;9.70;;;5.28;;
6422;SDS011;3244;42.708;23.288;2023-05-08T03:24:12;6.57;;;6.00;;
6422;SDS011;3244;42.708;23.288;2023-05-08T03:26:42;8.20;;;7.32;;
6422;SDS011;3244;42.708;23.288;2023-05-08T03:29:10;6.90;;;5.68;;
6422;SDS011;3244;42.708;23.288;2023-05-08T03:31:39;8.73;;;6.40;;
6422;SDS011;3244;42.708;23.288;2023-05-08T03:34:07;9.38;;;5.97;;
6422;SDS011;3244;42.708;23.288;2023-05-08T03:36:37;13.02;;;6.80;;
6422;SDS011;3244;42.708;23.288;2023-05-08T03:39:04;6.55;;;5.72;;
6422;SDS011;3244;42.708;23.288;2023-05-08T03:41:33;9.27;;;6.82;;
6422;SDS011;3244;42.708;23.288;2023-05-08T03:44:00;6.20;;;5.75;;
6422;SDS011;3244;42.708;23.288;2023-05-08T03:46:29;11.80;;;5.88;;
6422;SDS011;3244;42.708;23.288;2023-05-08T03:48:56;8.27;;;5.95;;
6422;SDS011;3244;42.708;23.288;2023-05-08T03:51:25;6.85;;;6.25;;
6422;SDS011;3244;42.708;23.288;2023-05-08T03:53:53;8.68;;;5.65;;
6422;SDS011;3244;42.708;23.288;2023-05-08T03:56:19;6.45;;;5.82;;
6422;SDS011;3244;42.708;23.288;2023-05-08T03:58:49;6.30;;;5.70;;
6422;SDS011;3244;42.708;23.288;2023-05-08T04:01:22;6.55;;;6.05;;
6422;SDS011;3244;42.708;23.288;2023-05-08T04:03:53;17.30;;;5.97;;
6422;SDS011;3244;42.708;23.288;2023-05-08T04:06:27;10.00;;;5.68;;
6422;SDS011;3244;42.708;23.288;2023-05-08T04:09:00;7.70;;;5.57;;
6422;SDS011;3244;42.708;23.288;2023-05-08T04:11:31;8.95;;;5.75;;
6422;SDS011;3244;42.708;23.288;2023-05-08T04:14:04;7.78;;;5.97;;
6422;SDS011;3244;42.708;23.288;2023-05-08T04:16:37;5.38;;;4.88;;
6422;SDS011;3244;42.708;23.288;2023-05-08T04:19:06;8.65;;;5.18;;
6422;SDS011;3244;42.708;23.288;2023-05-08T04:21:36;9.40;;;5.80;;
6422;SDS011;3244;42.708;23.288;2023-05-08T04:24:06;7.60;;;5.22;;
6422;SDS011;3244;42.708;23.288;2023-05-08T04:26:35;8.63;;;5.47;;
6422;SDS011;3244;42.708;23.288;2023-05-08T04:29:04;5.50;;;5.00;;
6422;SDS011;3244;42.708;23.288;2023-05-08T04:31:32;6.13;;;5.20;;
6422;SDS011;3244;42.708;23.288;2023-05-08T04:34:00;5.88;;;5.38;;
6422;SDS011;3244;42.708;23.288;2023-05-08T04:36:29;7.30;;;5.40;;
6422;SDS011;3244;42.708;23.288;2023-05-08T04:38:57;6.03;;;5.10;;
6422;SDS011;3244;42.708;23.288;2023-05-08T04:41:24;6.25;;;5.75;;
6422;SDS011;3244;42.708;23.288;2023-05-08T04:43:51;7.55;;;5.78;;
6422;SDS011;3244;42.708;23.288;2023-05-08T04:46:20;5.88;;;5.30;;
6422;SDS011;3244;42.708;23.288;2023-05-08T04:48:48;8.43;;;5.55;;
6422;SDS011;3244;42.708;23.288;2023-05-08T04:51:15;11.00;;;6.05;;
6422;SDS011;3244;42.708;23.288;2023-05-08T04:53:41;10.65;;;6.18;;
6422;SDS011;3244;42.708;23.288;2023-05-08T04:56:08;7.57;;;6.88;;
6422;SDS011;3244;42.708;23.288;2023-05-08T04:58:35;8.70;;;7.00;;
6422;SDS011;3244;42.708;23.288;2023-05-08T05:01:01;11.18;;;8.25;;
6422;SDS011;3244;42.708;23.288;2023-05-08T05:03:30;10.77;;;7.13;;
6422;SDS011;3244;42.708;23.288;2023-05-08T05:05:56;9.65;;;7.03;;
6422;SDS011;3244;42.708;23.288;2023-05-08T05:08:24;8.63;;;6.85;;
6422;SDS011;3244;42.708;23.288;2023-05-08T05:10:50;7.50;;;6.75;;
6422;SDS011;3244;42.708;23.288;2023-05-08T05:13:17;9.23;;;6.50;;
6422;SDS011;3244;42.708;23.288;2023-05-08T05:15:44;6.75;;;5.22;;
6422;SDS011;3244;42.708;23.288;2023-05-08T05:18:11;8.27;;;5.78;;
6422;SDS011;3244;42.708;23.288;2023-05-08T05:20:39;6.35;;;5.85;;
6422;SDS011;3244;42.708;23.288;2023-05-08T05:23:06;6.72;;;5.43;;
6422;SDS011;3244;42.708;23.288;2023-05-08T05:25:33;5.50;;;5.10;;
6422;SDS011;3244;42.708;23.288;2023-05-08T05:28:00;6.50;;;5.63;;
6422;SDS011;3244;42.708;23.288;2023-05-08T05:30:27;6.82;;;5.03;;
6422;SDS011;3244;42.708;23.288;2023-05-08T05:32:53;6.70;;;5.22;;
6422;SDS011;3244;42.708;23.288;2023-05-08T05:35:20;5.90;;;4.95;;
6422;SDS011;3244;42.708;23.288;2023-05-08T05:37:48;11.07;;;4.40;;
6422;SDS011;3244;42.708;23.288;2023-05-08T05:40:15;6.20;;;5.63;;
6422;SDS011;3244;42.708;23.288;2023-05-08T05:42:46;6.93;;;4.43;;
6422;SDS011;3244;42.708;23.288;2023-05-08T05:45:14;5.03;;;4.55;;
6422;SDS011;3244;42.708;23.288;2023-05-08T05:47:43;7.65;;;5.43;;
6422;SDS011;3244;42.708;23.288;2023-05-08T05:50:13;8.07;;;5.00;;
6422;SDS011;3244;42.708;23.288;2023-05-08T05:52:41;6.10;;;5.43;;
6422;SDS011;3244;42.708;23.288;2023-05-08T05:55:09;6.05;;;5.45;;
6422;SDS011;3244;42.708;23.288;2023-05-08T05:57:35;6.90;;;5.18;;
6422;SDS011;3244;42.708;23.288;2023-05-08T06:00:03;6.25;;;5.15;;
6422;SDS011;3244;42.708;23.288;2023-05-08T06:02:34;4.70;;;4.30;;
6422;SDS011;3244;42.708;23.288;2023-05-08T06:05:01;4.78;;;4.35;;
6422;SDS011;3244;42.708;23.288;2023-05-08T06:07:28;4.60;;;4.30;;
6422;SDS011;3244;42.708;23.288;2023-05-08T06:09:54;4.70;;;4.20;;
6422;SDS011;3244;42.708;23.288;2023-05-08T06:12:22;5.13;;;4.03;;
6422;SDS011;3244;42.708;23.288;2023-05-08T06:14:50;5.13;;;4.60;;
6422;SDS011;3244;42.708;23.288;2023-05-08T06:17:17;4.10;;;3.80;;
6422;SDS011;3244;42.708;23.288;2023-05-08T06:19:44;5.18;;;4.40;;
6422;SDS011;3244;42.708;23.288;2023-05-08T06:22:14;4.80;;;4.40;;
6422;SDS011;3244;42.708;23.288;2023-05-08T06:24:41;9.45;;;4.68;;
6422;SDS011;3244;42.708;23.288;2023-05-08T06:27:07;4.93;;;4.22;;
6422;SDS011;3244;42.708;23.288;2023-05-08T06:29:36;12.35;;;4.75;;
6422;SDS011;3244;42.708;23.288;2023-05-08T06:32:02;5.45;;;4.88;;
6422;SDS011;3244;42.708;23.288;2023-05-08T06:34:29;6.40;;;5.40;;
6422;SDS011;3244;42.708;23.288;2023-05-08T06:36:56;10.68;;;5.20;;
6422;SDS011;3244;42.708;23.288;2023-05-08T06:39:23;11.88;;;5.80;;
6422;SDS011;3244;42.708;23.288;2023-05-08T06:41:49;6.90;;;5.38;;
6422;SDS011;3244;42.708;23.288;2023-05-08T06:44:16;12.27;;;5.18;;
6422;SDS011;3244;42.708;23.288;2023-05-08T06:46:44;4.63;;;4.32;;
6422;SDS011;3244;42.708;23.288;2023-05-08T06:49:11;5.53;;;4.45;;
6422;SDS011;3244;42.708;23.288;2023-05-08T06:51:37;4.95;;;4.47;;
6422;SDS011;3244;42.708;23.288;2023-05-08T06:54:04;7.07;;;4.82;;
6422;SDS011;3244;42.708;23.288;2023-05-08T06:56:32;5.90;;;4.50;;
6422;SDS011;3244;42.708;23.288;2023-05-08T06:58:59;5.57;;;4.45;;
6422;SDS011;3244;42.708;23.288;2023-05-08T07:01:26;7.22;;;4.97;;
6422;SDS011;3244;42.708;23.288;2023-05-08T07:03:54;12.73;;;5.05;;
6422;SDS011;3244;42.708;23.288;2023-05-08T07:06:21;6.57;;;5.05;;
6422;SDS011;3244;42.708;23.288;2023-05-08T07:08:47;5.03;;;4.55;;
6422;SDS011;3244;42.708;23.288;2023-05-08T07:11:15;5.03;;;4.47;;
6422;SDS011;3244;42.708;23.288;2023-05-08T07:13:42;6.78;;;4.93;;
6422;SDS011;3244;42.708;23.288;2023-05-08T07:16:10;5.40;;;4.40;;
6422;SDS011;3244;42.708;23.288;2023-05-08T07:18:37;7.55;;;4.45;;
6422;SDS011;3244;42.708;23.288;2023-05-08T07:21:05;4.53;;;4.10;;
6422;SDS011;3244;42.708;23.288;2023-05-08T07:23:31;4.78;;;4.43;;
6422;SDS011;3244;42.708;23.288;2023-05-08T07:25:58;7.43;;;4.47;;
6422;SDS011;3244;42.708;23.288;2023-05-08T07:28:25;5.68;;;5.18;;
6422;SDS011;3244;42.708;23.288;2023-05-08T07:30:52;4.32;;;4.03;;
6422;SDS011;3244;42.708;23.288;2023-05-08T07:33:18;9.98;;;4.30;;
6422;SDS011;3244;42.708;23.288;2023-05-08T07:35:45;12.60;;;4.32;;
6422;SDS011;3244;42.708;23.288;2023-05-08T07:38:13;6.78;;;4.30;;
6422;SDS011;3244;42.708;23.288;2023-05-08T07:40:40;5.13;;;4.72;;
6422;SDS011;3244;42.708;23.288;2023-05-08T07:43:06;6.55;;;4.25;;
6422;SDS011;3244;42.708;23.288;2023-05-08T07:45:34;4.88;;;4.40;;
6422;SDS011;3244;42.708;23.288;2023-05-08T07:48:00;4.75;;;3.92;;
6422;SDS011;3244;42.708;23.288;2023-05-08T07:50:27;5.55;;;3.67;;
6422;SDS011;3244;42.708;23.288;2023-05-08T07:52:54;6.60;;;3.65;;
6422;SDS011;3244;42.708;23.288;2023-05-08T07:55:22;6.60;;;3.75;;
6422;SDS011;3244;42.708;23.288;2023-05-08T07:57:48;4.25;;;3.90;;
6422;SDS011;3244;42.708;23.288;2023-05-08T08:00:15;7.45;;;3.88;;
6422;SDS011;3244;42.708;23.288;2023-05-08T08:02:44;6.03;;;5.57;;
6422;SDS011;3244;42.708;23.288;2023-05-08T08:05:10;12.68;;;9.25;;
6422;SDS011;3244;42.708;23.288;2023-05-08T08:07:37;13.40;;;8.77;;
6422;SDS011;3244;42.708;23.288;2023-05-08T08:10:04;7.72;;;7.13;;
6422;SDS011;3244;42.708;23.288;2023-05-08T08:12:33;8.80;;;5.30;;
6422;SDS011;3244;42.708;23.288;2023-05-08T08:15:00;5.75;;;5.15;;
6422;SDS011;3244;42.708;23.288;2023-05-08T08:17:27;9.20;;;5.82;;
6422;SDS011;3244;42.708;23.288;2023-05-08T08:19:54;11.75;;;10.38;;
6422;SDS011;3244;42.708;23.288;2023-05-08T08:22:21;7.03;;;4.43;;
6422;SDS011;3244;42.708;23.288;2023-05-08T08:24:47;5.72;;;4.18;;
6422;SDS011;3244;42.708;23.288;2023-05-08T08:27:14;7.20;;;6.65;;
6422;SDS011;3244;42.708;23.288;2023-05-08T08:29:42;13.00;;;8.32;;
6422;SDS011;3244;42.708;23.288;2023-05-08T08:32:09;9.77;;;8.98;;
6422;SDS011;3244;42.708;23.288;2023-05-08T08:34:36;5.93;;;5.40;;
6422;SDS011;3244;42.708;23.288;2023-05-08T08:37:03;7.45;;;4.75;;
6422;SDS011;3244;42.708;23.288;2023-05-08T08:39:31;4.47;;;4.10;;
6422;SDS011;3244;42.708;23.288;2023-05-08T08:41:58;4.85;;;3.72;;
6422;SDS011;3244;42.708;23.288;2023-05-08T08:44:25;10.18;;;9.02;;
6422;SDS011;3244;42.708;23.288;2023-05-08T08:46:53;7.57;;;6.05;;
6422;SDS011;3244;42.708;23.288;2023-05-08T08:49:23;4.88;;;3.90;;
6422;SDS011;3244;42.708;23.288;2023-05-08T08:51:54;6.18;;;3.47;;
6422;SDS011;3244;42.708;23.288;2023-05-08T08:54:27;14.40;;;4.25;;
6422;SDS011;3244;42.708;23.288;2023-05-08T08:56:55;4.57;;;4.15;;
6422;SDS011;3244;42.708;23.288;2023-05-08T08:59:25;3.97;;;3.67;;
6422;SDS011;3244;42.708;23.288;2023-05-08T09:01:55;4.70;;;4.10;;
6422;SDS011;3244;42.708;23.288;2023-05-08T09:04:26;5.45;;;4.20;;
6422;SDS011;3244;42.708;23.288;2023-05-08T09:06:53;4.05;;;3.67;;
6422;SDS011;3244;42.708;23.288;2023-05-08T09:09:22;4.82;;;4.43;;
6422;SDS011;3244;42.708;23.288;2023-05-08T09:11:50;9.50;;;8.63;;
6422;SDS011;3244;42.708;23.288;2023-05-08T09:14:17;10.23;;;7.10;;
6422;SDS011;3244;42.708;23.288;2023-05-08T09:16:44;8.25;;;6.28;;
6422;SDS011;3244;42.708;23.288;2023-05-08T09:19:13;4.97;;;4.47;;
6422;SDS011;3244;42.708;23.288;2023-05-08T09:21:40;9.68;;;5.57;;
6422;SDS011;3244;42.708;23.288;2023-05-08T09:24:10;9.93;;;6.43;;
6422;SDS011;3244;42.708;23.288;2023-05-08T09:26:38;9.15;;;5.03;;
6422;SDS011;3244;42.708;23.288;2023-05-08T09:29:09;9.77;;;4.85;;
6422;SDS011;3244;42.708;23.288;2023-05-08T09:31:38;11.25;;;6.35;;
6422;SDS011;3244;42.708;23.288;2023-05-08T09:34:22;7.72;;;6.70;;
6422;SDS011;3244;42.708;23.288;2023-05-08T09:36:51;9.65;;;6.72;;
6422;SDS011;3244;42.708;23.288;2023-05-08T09:39:20;7.10;;;6.40;;
6422;SDS011;3244;42.708;23.288;2023-05-08T09:41:58;6.97;;;6.05;;
6422;SDS011;3244;42.708;23.288;2023-05-08T09:44:25;11.27;;;5.72;;
6422;SDS011;3244;42.708;23.288;2023-05-08T09:46:53;6.03;;;5.60;;
6422;SDS011;3244;42.708;23.288;2023-05-08T09:49:37;5.32;;;4.82;;
6422;SDS011;3244;42.708;23.288;2023-05-08T09:52:04;11.88;;;5.45;;
6422;SDS011;3244;42.708;23.288;2023-05-08T09:54:31;14.98;;;8.65;;
6422;SDS011;3244;42.708;23.288;2023-05-08T09:56:58;14.43;;;8.32;;
6422;SDS011;3244;42.708;23.288;2023-05-08T09:59:25;8.73;;;7.22;;
6422;SDS011;3244;42.708;23.288;2023-05-08T10:01:53;9.45;;;8.35;;
6422;SDS011;3244;42.708;23.288;2023-05-08T10:04:30;10.85;;;8.57;;
6422;SDS011;3244;42.708;23.288;2023-05-08T10:06:58;10.98;;;7.45;;
6422;SDS011;3244;42.708;23.288;2023-05-08T10:09:25;11.05;;;8.35;;
6422;SDS011;3244;42.708;23.288;2023-05-08T10:11:52;11.02;;;6.55;;
6422;SDS011;3244;42.708;23.288;2023-05-08T10:14:20;10.00;;;8.50;;
6422;SDS011;3244;42.708;23.288;2023-05-08T10:16:47;9.02;;;8.23;;
6422;SDS011;3244;42.708;23.288;2023-05-08T10:19:16;9.32;;;6.95;;
6422;SDS011;3244;42.708;23.288;2023-05-08T10:21:45;9.90;;;6.80;;
6422;SDS011;3244;42.708;23.288;2023-05-08T10:24:14;6.35;;;5.85;;
6422;SDS011;3244;42.708;23.288;2023-05-08T10:26:43;5.97;;;5.47;;
6422;SDS011;3244;42.708;23.288;2023-05-08T10:29:20;8.57;;;5.53;;
6422;SDS011;3244;42.708;23.288;2023-05-08T10:31:49;6.93;;;5.03;;
6422;SDS011;3244;42.708;23.288;2023-05-08T10:34:21;5.25;;;4.57;;
6422;SDS011;3244;42.708;23.288;2023-05-08T10:36:52;5.47;;;4.35;;
6422;SDS011;3244;42.708;23.288;2023-05-08T10:39:20;10.70;;;5.82;;
6422;SDS011;3244;42.708;23.288;2023-05-08T10:41:48;6.82;;;5.20;;
6422;SDS011;3244;42.708;23.288;2023-05-08T10:44:15;6.57;;;5.53;;
6422;SDS011;3244;42.708;23.288;2023-05-08T10:46:45;6.35;;;5.72;;
6422;SDS011;3244;42.708;23.288;2023-05-08T10:49:18;6.03;;;5.32;;
6422;SDS011;3244;42.708;23.288;2023-05-08T10:51:57;7.25;;;4.93;;
6422;SDS011;3244;42.708;23.288;2023-05-08T10:54:37;10.95;;;5.80;;
6422;SDS011;3244;42.708;23.288;2023-05-08T10:57:13;6.30;;;4.88;;
6422;SDS011;3244;42.708;23.288;2023-05-08T10:59:42;6.05;;;4.40;;
6422;SDS011;3244;42.708;23.288;2023-05-08T11:02:10;6.22;;;5.68;;
6422;SDS011;3244;42.708;23.288;2023-05-08T11:04:37;7.05;;;4.97;;
6422;SDS011;3244;42.708;23.288;2023-05-08T11:07:04;7.80;;;5.28;;
6422;SDS011;3244;42.708;23.288;2023-05-08T11:09:45;6.53;;;5.28;;
6422;SDS011;3244;42.708;23.288;2023-05-08T11:12:18;6.32;;;5.07;;
6422;SDS011;3244;42.708;23.288;2023-05-08T11:14:59;4.80;;;4.50;;
6422;SDS011;3244;42.708;23.288;2023-05-08T11:17:29;6.43;;;4.90;;
6422;SDS011;3244;42.708;23.288;2023-05-08T11:19:56;5.13;;;4.72;;
6422;SDS011;3244;42.708;23.288;2023-05-08T11:22:28;4.75;;;4.35;;
6422;SDS011;3244;42.708;23.288;2023-05-08T11:25:05;5.38;;;4.47;;
6422;SDS011;3244;42.708;23.288;2023-05-08T11:27:34;5.93;;;4.70;;
6422;SDS011;3244;42.708;23.288;2023-05-08T11:30:25;5.95;;;3.90;;
6422;SDS011;3244;42.708;23.288;2023-05-08T11:35:55;4.50;;;4.10;;
6422;SDS011;3244;42.708;23.288;2023-05-08T11:38:24;4.70;;;4.30;;
6422;SDS011;3244;42.708;23.288;2023-05-08T11:41:00;5.00;;;3.92;;
6422;SDS011;3244;42.708;23.288;2023-05-08T11:46:39;6.47;;;4.43;;
6422;SDS011;3244;42.708;23.288;2023-05-08T11:49:11;6.68;;;4.70;;
6422;SDS011;3244;42.708;23.288;2023-05-08T11:51:40;4.97;;;4.47;;
6422;SDS011;3244;42.708;23.288;2023-05-08T11:54:09;4.15;;;3.85;;
6422;SDS011;3244;42.708;23.288;2023-05-08T11:56:39;6.25;;;5.47;;
6422;SDS011;3244;42.708;23.288;2023-05-08T11:59:06;5.18;;;4.78;;
6422;SDS011;3244;42.708;23.288;2023-05-08T12:01:34;4.28;;;3.88;;
6422;SDS011;3244;42.708;23.288;2023-05-08T12:04:02;4.35;;;4.03;;
6422;SDS011;3244;42.708;23.288;2023-05-08T12:06:30;3.80;;;3.50;;
6422;SDS011;3244;42.708;23.288;2023-05-08T12:08:57;10.68;;;3.85;;
6422;SDS011;3244;42.708;23.288;2023-05-08T12:11:24;3.63;;;3.40;;
6422;SDS011;3244;42.708;23.288;2023-05-08T12:13:53;3.92;;;3.47;;
6422;SDS011;3244;42.708;23.288;2023-05-08T12:16:21;4.03;;;3.75;;
6422;SDS011;3244;42.708;23.288;2023-05-08T12:18:49;5.53;;;3.88;;
6422;SDS011;3244;42.708;23.288;2023-05-08T12:21:16;3.80;;;3.47;;
6422;SDS011;3244;42.708;23.288;2023-05-08T12:23:43;5.82;;;4.32;;
6422;SDS011;3244;42.708;23.288;2023-05-08T12:26:10;5.25;;;4.18;;
6422;SDS011;3244;42.708;23.288;2023-05-08T12:28:37;3.78;;;3.47;;
6422;SDS011;3244;42.708;23.288;2023-05-08T12:31:06;3.95;;;3.63;;
6422;SDS011;3244;42.708;23.288;2023-05-08T12:33:33;3.78;;;3.47;;
6422;SDS011;3244;42.708;23.288;2023-05-08T12:36:00;3.92;;;3.72;;
6422;SDS011;3244;42.708;23.288;2023-05-08T12:38:27;3.33;;;2.80;;
6422;SDS011;3244;42.708;23.288;2023-05-08T12:40:54;3.45;;;3.00;;
6422;SDS011;3244;42.708;23.288;2023-05-08T12:43:29;6.15;;;3.72;;
6422;SDS011;3244;42.708;23.288;2023-05-08T12:45:56;3.67;;;3.35;;
6422;SDS011;3244;42.708;23.288;2023-05-08T12:48:25;3.17;;;2.97;;
6422;SDS011;3244;42.708;23.288;2023-05-08T12:50:52;3.35;;;3.15;;
6422;SDS011;3244;42.708;23.288;2023-05-08T12:53:19;6.05;;;3.30;;
6422;SDS011;3244;42.708;23.288;2023-05-08T12:55:50;3.67;;;3.30;;
6422;SDS011;3244;42.708;23.288;2023-05-08T12:58:19;2.72;;;2.63;;
6422;SDS011;3244;42.708;23.288;2023-05-08T13:00:49;6.05;;;3.85;;
6422;SDS011;3244;42.708;23.288;2023-05-08T13:03:21;4.20;;;2.92;;
6422;SDS011;3244;42.708;23.288;2023-05-08T13:05:50;5.65;;;3.10;;
6422;SDS011;3244;42.708;23.288;2023-05-08T13:08:18;3.63;;;3.15;;
6422;SDS011;3244;42.708;23.288;2023-05-08T13:10:46;13.35;;;8.63;;
6422;SDS011;3244;42.708;23.288;2023-05-08T13:13:14;4.03;;;3.55;;
6422;SDS011;3244;42.708;23.288;2023-05-08T13:15:42;5.88;;;5.47;;
6422;SDS011;3244;42.708;23.288;2023-05-08T13:18:09;4.13;;;3.70;;
6422;SDS011;3244;42.708;23.288;2023-05-08T13:20:36;3.85;;;3.65;;
6422;SDS011;3244;42.708;23.288;2023-05-08T13:23:04;4.75;;;4.28;;
6422;SDS011;3244;42.708;23.288;2023-05-08T13:25:32;4.38;;;4.07;;
6422;SDS011;3244;42.708;23.288;2023-05-08T13:28:00;5.82;;;5.22;;
6422;SDS011;3244;42.708;23.288;2023-05-08T13:30:27;5.20;;;4.72;;
6422;SDS011;3244;42.708;23.288;2023-05-08T13:32:54;12.23;;;4.72;;
6422;SDS011;3244;42.708;23.288;2023-05-08T13:35:21;5.32;;;4.68;;
6422;SDS011;3244;42.708;23.288;2023-05-08T13:37:48;5.10;;;4.25;;
6422;SDS011;3244;42.708;23.288;2023-05-08T13:40:16;5.07;;;4.60;;
6422;SDS011;3244;42.708;23.288;2023-05-08T13:42:43;4.00;;;3.70;;
6422;SDS011;3244;42.708;23.288;2023-05-08T13:45:10;5.07;;;4.55;;
6422;SDS011;3244;42.708;23.288;2023-05-08T13:47:38;4.68;;;4.15;;
6422;SDS011;3244;42.708;23.288;2023-05-08T13:50:06;4.53;;;4.10;;
6422;SDS011;3244;42.708;23.288;2023-05-08T13:52:34;11.98;;;4.38;;
6422;SDS011;3244;42.708;23.288;2023-05-08T13:55:01;4.72;;;4.22;;
6422;SDS011;3244;42.708;23.288;2023-05-08T13:57:29;5.55;;;4.10;;
6422;SDS011;3244;42.708;23.288;2023-05-08T13:59:55;4.75;;;4.35;;
6422;SDS011;3244;42.708;23.288;2023-05-08T14:02:22;3.83;;;3.63;;
6422;SDS011;3244;42.708;23.288;2023-05-08T14:04:49;6.70;;;4.93;;
6422;SDS011;3244;42.708;23.288;2023-05-08T14:07:15;4.50;;;4.10;;
6422;SDS011;3244;42.708;23.288;2023-05-08T14:09:42;4.22;;;3.92;;
6422;SDS011;3244;42.708;23.288;2023-05-08T14:12:09;6.00;;;4.68;;
6422;SDS011;3244;42.708;23.288;2023-05-08T14:14:37;7.75;;;5.45;;
6422;SDS011;3244;42.708;23.288;2023-05-08T14:17:04;5.55;;;5.03;;
6422;SDS011;3244;42.708;23.288;2023-05-08T14:19:31;5.80;;;4.95;;
6422;SDS011;3244;42.708;23.288;2023-05-08T14:21:58;8.02;;;7.40;;
6422;SDS011;3244;42.708;23.288;2023-05-08T14:24:25;5.90;;;5.45;;
6422;SDS011;3244;42.708;23.288;2023-05-08T14:26:52;4.20;;;3.95;;
6422;SDS011;3244;42.708;23.288;2023-05-08T14:29:18;17.05;;;5.15;;
6422;SDS011;3244;42.708;23.288;2023-05-08T14:31:47;4.53;;;3.78;;
6422;SDS011;3244;42.708;23.288;2023-05-08T14:34:13;3.85;;;3.58;;
6422;SDS011;3244;42.708;23.288;2023-05-08T14:36:40;7.60;;;3.80;;
6422;SDS011;3244;42.708;23.288;2023-05-08T14:39:06;4.30;;;4.00;;
6422;SDS011;3244;42.708;23.288;2023-05-08T14:41:33;3.90;;;3.70;;
6422;SDS011;3244;42.708;23.288;2023-05-08T14:44:00;4.05;;;3.78;;
6422;SDS011;3244;42.708;23.288;2023-05-08T14:46:27;4.07;;;3.85;;
6422;SDS011;3244;42.708;23.288;2023-05-08T14:48:55;3.67;;;3.45;;
6422;SDS011;3244;42.708;23.288;2023-05-08T14:51:22;3.88;;;3.67;;
6422;SDS011;3244;42.708;23.288;2023-05-08T14:53:49;4.32;;;4.03;;
6422;SDS011;3244;42.708;23.288;2023-05-08T14:56:16;4.30;;;4.00;;
6422;SDS011;3244;42.708;23.288;2023-05-08T14:58:43;3.83;;;3.63;;
6422;SDS011;3244;42.708;23.288;2023-05-08T15:01:10;3.38;;;3.17;;
6422;SDS011;3244;42.708;23.288;2023-05-08T15:03:36;4.20;;;3.80;;
6422;SDS011;3244;42.708;23.288;2023-05-08T15:06:05;3.90;;;3.60;;
6422;SDS011;3244;42.708;23.288;2023-05-08T15:08:32;4.53;;;3.33;;
6422;SDS011;3244;42.708;23.288;2023-05-08T15:10:58;4.97;;;4.13;;
6422;SDS011;3244;42.708;23.288;2023-05-08T15:13:25;4.18;;;3.72;;
6422;SDS011;3244;42.708;23.288;2023-05-08T15:15:52;3.95;;;3.58;;